sensor_id;sensor_type;location;lat;lon;timestamp;temperature;humidity
32502;DHT22;18952;52.516;13.460;2022-11-20T00:01:55;0.30;99.90
32502;DHT22;18952;52.516;13.460;2022-11-20T00:04:21;0.30;99.90
32502;DHT22;18952;52.516;13.460;2022-11-20T00:06:48;0.30;99.90
32502;DHT22;18952;52.516;13.460;2022-11-20T00:09:15;0.30;99.90
32502;DHT22;18952;52.516;13.460;2022-11-20T00:11:41;0.30;99.90
32502;DHT22;18952;52.516;13.460;2022-11-20T00:14:09;0.20;99.90
32502;DHT22;18952;52.516;13.460;2022-11-20T00:16:36;0.20;99.90
32502;DHT22;18952;52.516;13.460;2022-11-20T00:19:03;0.20;99.90
32502;DHT22;18952;52.516;13.460;2022-11-20T00:21:30;0.20;99.90
32502;DHT22;18952;52.516;13.460;2022-11-20T00:23:57;0.20;99.90
32502;DHT22;18952;52.516;13.460;2022-11-20T00:26:26;0.20;99.90
32502;DHT22;18952;52.516;13.460;2022-11-20T00:28:55;0.20;99.90
32502;DHT22;18952;52.516;13.460;2022-11-20T00:31:22;0.20;99.90
32502;DHT22;18952;52.516;13.460;2022-11-20T00:33:49;0.20;99.90
32502;DHT22;18952;52.516;13.460;2022-11-20T00:36:21;0.20;99.90
32502;DHT22;18952;52.516;13.460;2022-11-20T00:38:56;0.20;99.90
32502;DHT22;18952;52.516;13.460;2022-11-20T00:41:24;0.30;99.90
32502;DHT22;18952;52.516;13.460;2022-11-20T00:43:53;0.30;99.90
32502;DHT22;18952;52.516;13.460;2022-11-20T00:46:22;0.20;99.90
32502;DHT22;18952;52.516;13.460;2022-11-20T00:48:49;0.30;99.90
32502;DHT22;18952;52.516;13.460;2022-11-20T00:51:19;0.20;99.90
32502;DHT22;18952;52.516;13.460;2022-11-20T00:53:46;0.20;99.90
32502;DHT22;18952;52.516;13.460;2022-11-20T00:56:15;0.20;99.90
32502;DHT22;18952;52.516;13.460;2022-11-20T00:58:45;0.20;99.90
32502;DHT22;18952;52.516;13.460;2022-11-20T01:01:15;0.20;99.90
32502;DHT22;18952;52.516;13.460;2022-11-20T01:03:45;0.20;99.90
32502;DHT22;18952;52.516;13.460;2022-11-20T01:06:23;0.20;99.90
32502;DHT22;18952;52.516;13.460;2022-11-20T01:08:52;0.20;99.90
32502;DHT22;18952;52.516;13.460;2022-11-20T01:11:34;0.20;99.90
32502;DHT22;18952;52.516;13.460;2022-11-20T01:14:03;0.20;99.90
32502;DHT22;18952;52.516;13.460;2022-11-20T01:16:35;0.20;99.90
32502;DHT22;18952;52.516;13.460;2022-11-20T01:19:05;0.20;99.90
32502;DHT22;18952;52.516;13.460;2022-11-20T01:21:34;0.20;99.90
32502;DHT22;18952;52.516;13.460;2022-11-20T01:24:02;0.20;99.90
32502;DHT22;18952;52.516;13.460;2022-11-20T01:26:31;0.20;99.90
32502;DHT22;18952;52.516;13.460;2022-11-20T01:28:59;0.20;99.90
32502;DHT22;18952;52.516;13.460;2022-11-20T01:31:32;0.20;99.90
32502;DHT22;18952;52.516;13.460;2022-11-20T01:34:02;0.20;99.90
32502;DHT22;18952;52.516;13.460;2022-11-20T01:36:31;0.20;99.90
32502;DHT22;18952;52.516;13.460;2022-11-20T01:39:02;0.20;99.90
32502;DHT22;18952;52.516;13.460;2022-11-20T01:41:31;0.20;99.90
32502;DHT22;18952;52.516;13.460;2022-11-20T01:43:59;0.20;99.90
32502;DHT22;18952;52.516;13.460;2022-11-20T01:46:26;0.10;99.90
32502;DHT22;18952;52.516;13.460;2022-11-20T01:49:03;0.20;99.90
32502;DHT22;18952;52.516;13.460;2022-11-20T01:51:43;0.10;99.90
32502;DHT22;18952;52.516;13.460;2022-11-20T01:54:17;0.20;99.90
32502;DHT22;18952;52.516;13.460;2022-11-20T01:56:48;0.20;99.90
32502;DHT22;18952;52.516;13.460;2022-11-20T01:59:18;0.20;99.90
32502;DHT22;18952;52.516;13.460;2022-11-20T02:01:46;0.20;99.90
32502;DHT22;18952;52.516;13.460;2022-11-20T02:04:13;0.30;99.90
32502;DHT22;18952;52.516;13.460;2022-11-20T02:06:48;0.30;99.90
32502;DHT22;18952;52.516;13.460;2022-11-20T02:09:16;0.30;99.90
32502;DHT22;18952;52.516;13.460;2022-11-20T02:11:43;0.20;99.90
32502;DHT22;18952;52.516;13.460;2022-11-20T02:14:10;0.20;99.90
32502;DHT22;18952;52.516;13.460;2022-11-20T02:16:40;0.20;99.90
32502;DHT22;18952;52.516;13.460;2022-11-20T02:22:08;0.10;99.90
32502;DHT22;18952;52.516;13.460;2022-11-20T02:24:37;0.10;99.90
32502;DHT22;18952;52.516;13.460;2022-11-20T02:27:15;0.10;99.90
32502;DHT22;18952;52.516;13.460;2022-11-20T02:29:51;0.10;99.90
32502;DHT22;18952;52.516;13.460;2022-11-20T02:32:20;0.10;99.90
32502;DHT22;18952;52.516;13.460;2022-11-20T02:34:47;0.10;99.90
32502;DHT22;18952;52.516;13.460;2022-11-20T02:37:14;0.00;99.90
32502;DHT22;18952;52.516;13.460;2022-11-20T02:39:42;0.00;99.90
32502;DHT22;18952;52.516;13.460;2022-11-20T02:42:10;0.10;99.90
32502;DHT22;18952;52.516;13.460;2022-11-20T02:44:37;0.10;99.90
32502;DHT22;18952;52.516;13.460;2022-11-20T02:47:03;0.10;99.90
32502;DHT22;18952;52.516;13.460;2022-11-20T02:49:30;0.10;99.90
32502;DHT22;18952;52.516;13.460;2022-11-20T02:51:57;0.10;99.90
32502;DHT22;18952;52.516;13.460;2022-11-20T02:54:24;0.10;99.90
32502;DHT22;18952;52.516;13.460;2022-11-20T02:56:51;0.10;99.90
32502;DHT22;18952;52.516;13.460;2022-11-20T02:59:17;0.10;99.90
32502;DHT22;18952;52.516;13.460;2022-11-20T03:01:45;0.10;99.90
32502;DHT22;18952;52.516;13.460;2022-11-20T03:04:11;0.00;99.90
32502;DHT22;18952;52.516;13.460;2022-11-20T03:06:38;0.10;99.90
32502;DHT22;18952;52.516;13.460;2022-11-20T03:09:05;0.10;99.90
32502;DHT22;18952;52.516;13.460;2022-11-20T03:11:32;0.10;99.90
32502;DHT22;18952;52.516;13.460;2022-11-20T03:14:02;0.00;99.90
32502;DHT22;18952;52.516;13.460;2022-11-20T03:16:30;0.00;99.90
32502;DHT22;18952;52.516;13.460;2022-11-20T03:18:58;-0.10;99.90
32502;DHT22;18952;52.516;13.460;2022-11-20T03:21:25;-0.10;99.90
32502;DHT22;18952;52.516;13.460;2022-11-20T03:23:53;-0.20;99.90
32502;DHT22;18952;52.516;13.460;2022-11-20T03:26:23;-0.20;99.90
32502;DHT22;18952;52.516;13.460;2022-11-20T03:28:58;-0.10;99.90
32502;DHT22;18952;52.516;13.460;2022-11-20T03:31:33;-0.10;99.90
32502;DHT22;18952;52.516;13.460;2022-11-20T03:34:00;-0.20;99.90
32502;DHT22;18952;52.516;13.460;2022-11-20T03:36:28;-0.10;99.90
32502;DHT22;18952;52.516;13.460;2022-11-20T03:38:58;-0.10;99.90
32502;DHT22;18952;52.516;13.460;2022-11-20T03:41:29;-0.10;99.90
32502;DHT22;18952;52.516;13.460;2022-11-20T03:43:59;-0.10;99.90
32502;DHT22;18952;52.516;13.460;2022-11-20T03:46:27;-0.10;99.90
32502;DHT22;18952;52.516;13.460;2022-11-20T03:48:54;-0.10;99.90
32502;DHT22;18952;52.516;13.460;2022-11-20T03:51:26;0.00;99.90
32502;DHT22;18952;52.516;13.460;2022-11-20T03:53:55;0.00;99.90
32502;DHT22;18952;52.516;13.460;2022-11-20T03:56:24;0.00;99.90
32502;DHT22;18952;52.516;13.460;2022-11-20T03:58:51;0.00;99.90
32502;DHT22;18952;52.516;13.460;2022-11-20T04:01:21;0.10;99.90
32502;DHT22;18952;52.516;13.460;2022-11-20T04:03:48;0.10;99.90
32502;DHT22;18952;52.516;13.460;2022-11-20T04:06:20;0.10;99.90
32502;DHT22;18952;52.516;13.460;2022-11-20T04:08:47;0.00;99.90
32502;DHT22;18952;52.516;13.460;2022-11-20T04:13:58;0.00;99.90
32502;DHT22;18952;52.516;13.460;2022-11-20T04:16:28;0.00;99.90
32502;DHT22;18952;52.516;13.460;2022-11-20T04:18:58;0.00;99.90
32502;DHT22;18952;52.516;13.460;2022-11-20T04:21:26;0.10;99.90
32502;DHT22;18952;52.516;13.460;2022-11-20T04:23:54;0.10;99.90
32502;DHT22;18952;52.516;13.460;2022-11-20T04:26:22;0.10;99.90
32502;DHT22;18952;52.516;13.460;2022-11-20T04:28:49;0.10;99.90
32502;DHT22;18952;52.516;13.460;2022-11-20T04:31:19;0.10;99.90
32502;DHT22;18952;52.516;13.460;2022-11-20T04:33:46;0.10;99.90
32502;DHT22;18952;52.516;13.460;2022-11-20T04:36:16;0.00;99.90
32502;DHT22;18952;52.516;13.460;2022-11-20T04:38:44;-0.10;99.90
32502;DHT22;18952;52.516;13.460;2022-11-20T04:41:21;-0.10;99.90
32502;DHT22;18952;52.516;13.460;2022-11-20T04:43:50;-0.10;99.90
32502;DHT22;18952;52.516;13.460;2022-11-20T04:46:19;-0.20;99.90
32502;DHT22;18952;52.516;13.460;2022-11-20T04:48:46;-0.20;99.90
32502;DHT22;18952;52.516;13.460;2022-11-20T04:51:13;-0.20;99.90
32502;DHT22;18952;52.516;13.460;2022-11-20T04:53:40;-0.20;99.90
32502;DHT22;18952;52.516;13.460;2022-11-20T04:56:08;-0.20;99.90
32502;DHT22;18952;52.516;13.460;2022-11-20T04:58:36;-0.20;99.90
32502;DHT22;18952;52.516;13.460;2022-11-20T05:01:09;-0.20;99.90
32502;DHT22;18952;52.516;13.460;2022-11-20T05:03:36;-0.20;99.90
32502;DHT22;18952;52.516;13.460;2022-11-20T05:06:09;-0.20;99.90
32502;DHT22;18952;52.516;13.460;2022-11-20T05:08:36;-0.10;99.90
32502;DHT22;18952;52.516;13.460;2022-11-20T05:11:09;-0.10;99.90
32502;DHT22;18952;52.516;13.460;2022-11-20T05:13:37;-0.10;99.90
32502;DHT22;18952;52.516;13.460;2022-11-20T05:16:08;-0.10;99.90
32502;DHT22;18952;52.516;13.460;2022-11-20T05:18:35;-0.20;99.90
32502;DHT22;18952;52.516;13.460;2022-11-20T05:21:02;-0.20;99.90
32502;DHT22;18952;52.516;13.460;2022-11-20T05:23:30;-0.10;99.90
32502;DHT22;18952;52.516;13.460;2022-11-20T05:25:58;-0.10;99.90
32502;DHT22;18952;52.516;13.460;2022-11-20T05:28:26;-0.10;99.90
32502;DHT22;18952;52.516;13.460;2022-11-20T05:30:53;-0.10;99.90
32502;DHT22;18952;52.516;13.460;2022-11-20T05:33:20;-0.10;99.90
32502;DHT22;18952;52.516;13.460;2022-11-20T05:35:46;-0.20;99.90
32502;DHT22;18952;52.516;13.460;2022-11-20T05:38:13;-0.20;99.90
32502;DHT22;18952;52.516;13.460;2022-11-20T05:40:40;-0.20;99.90
32502;DHT22;18952;52.516;13.460;2022-11-20T05:43:07;-0.20;99.90
32502;DHT22;18952;52.516;13.460;2022-11-20T05:45:34;-0.20;99.90
32502;DHT22;18952;52.516;13.460;2022-11-20T05:48:01;-0.20;99.90
32502;DHT22;18952;52.516;13.460;2022-11-20T05:50:30;-0.10;99.90
32502;DHT22;18952;52.516;13.460;2022-11-20T05:53:00;-0.10;99.90
32502;DHT22;18952;52.516;13.460;2022-11-20T05:55:27;-0.10;99.90
32502;DHT22;18952;52.516;13.460;2022-11-20T05:57:54;-0.10;99.90
32502;DHT22;18952;52.516;13.460;2022-11-20T06:00:22;-0.10;99.90
32502;DHT22;18952;52.516;13.460;2022-11-20T06:02:48;0.00;99.90
32502;DHT22;18952;52.516;13.460;2022-11-20T06:05:15;0.00;99.90
32502;DHT22;18952;52.516;13.460;2022-11-20T06:07:42;0.00;99.90
32502;DHT22;18952;52.516;13.460;2022-11-20T06:10:10;0.00;99.90
32502;DHT22;18952;52.516;13.460;2022-11-20T06:12:37;0.00;99.90
32502;DHT22;18952;52.516;13.460;2022-11-20T06:15:04;-0.10;99.90
32502;DHT22;18952;52.516;13.460;2022-11-20T06:17:31;-0.20;99.90
32502;DHT22;18952;52.516;13.460;2022-11-20T06:19:58;-0.10;99.90
32502;DHT22;18952;52.516;13.460;2022-11-20T06:22:25;-0.20;99.90
32502;DHT22;18952;52.516;13.460;2022-11-20T06:24:51;-0.20;99.90
32502;DHT22;18952;52.516;13.460;2022-11-20T06:27:18;-0.30;99.90
32502;DHT22;18952;52.516;13.460;2022-11-20T06:29:45;-0.30;99.90
32502;DHT22;18952;52.516;13.460;2022-11-20T06:32:11;-0.20;99.90
32502;DHT22;18952;52.516;13.460;2022-11-20T06:34:39;-0.30;99.90
32502;DHT22;18952;52.516;13.460;2022-11-20T06:37:05;-0.30;99.90
32502;DHT22;18952;52.516;13.460;2022-11-20T06:39:32;-0.30;99.90
32502;DHT22;18952;52.516;13.460;2022-11-20T06:41:59;-0.20;99.90
32502;DHT22;18952;52.516;13.460;2022-11-20T06:44:25;-0.30;99.90
32502;DHT22;18952;52.516;13.460;2022-11-20T06:46:52;-0.30;99.90
32502;DHT22;18952;52.516;13.460;2022-11-20T06:49:19;-0.30;99.90
32502;DHT22;18952;52.516;13.460;2022-11-20T06:51:46;-0.30;99.90
32502;DHT22;18952;52.516;13.460;2022-11-20T06:54:12;-0.30;99.90
32502;DHT22;18952;52.516;13.460;2022-11-20T06:56:40;-0.30;99.90
32502;DHT22;18952;52.516;13.460;2022-11-20T06:59:07;-0.20;99.90
32502;DHT22;18952;52.516;13.460;2022-11-20T07:01:33;-0.20;99.90
32502;DHT22;18952;52.516;13.460;2022-11-20T07:04:00;-0.20;99.90
32502;DHT22;18952;52.516;13.460;2022-11-20T07:06:27;-0.20;99.90
32502;DHT22;18952;52.516;13.460;2022-11-20T07:08:54;-0.20;99.90
32502;DHT22;18952;52.516;13.460;2022-11-20T07:11:20;-0.20;99.90
32502;DHT22;18952;52.516;13.460;2022-11-20T07:13:47;-0.20;99.90
32502;DHT22;18952;52.516;13.460;2022-11-20T07:16:14;-0.20;99.90
32502;DHT22;18952;52.516;13.460;2022-11-20T07:18:41;-0.20;99.90
32502;DHT22;18952;52.516;13.460;2022-11-20T07:21:15;-0.20;99.90
32502;DHT22;18952;52.516;13.460;2022-11-20T07:23:42;-0.30;99.90
32502;DHT22;18952;52.516;13.460;2022-11-20T07:26:10;-0.30;99.90
32502;DHT22;18952;52.516;13.460;2022-11-20T07:28:37;-0.20;99.90
32502;DHT22;18952;52.516;13.460;2022-11-20T07:31:04;-0.20;99.90
32502;DHT22;18952;52.516;13.460;2022-11-20T07:33:31;-0.20;99.90
32502;DHT22;18952;52.516;13.460;2022-11-20T07:35:59;-0.20;99.90
32502;DHT22;18952;52.516;13.460;2022-11-20T07:38:26;-0.20;99.90
32502;DHT22;18952;52.516;13.460;2022-11-20T07:40:54;-0.20;99.90
32502;DHT22;18952;52.516;13.460;2022-11-20T07:43:23;-0.10;99.90
32502;DHT22;18952;52.516;13.460;2022-11-20T07:45:50;-0.10;99.90
32502;DHT22;18952;52.516;13.460;2022-11-20T07:48:17;-0.10;99.90
32502;DHT22;18952;52.516;13.460;2022-11-20T07:50:44;-0.10;99.90
32502;DHT22;18952;52.516;13.460;2022-11-20T07:53:11;-0.10;99.90
32502;DHT22;18952;52.516;13.460;2022-11-20T07:55:37;-0.10;99.90
32502;DHT22;18952;52.516;13.460;2022-11-20T07:58:04;-0.10;99.90
32502;DHT22;18952;52.516;13.460;2022-11-20T08:00:31;-0.20;99.90
32502;DHT22;18952;52.516;13.460;2022-11-20T08:02:58;-0.20;99.90
32502;DHT22;18952;52.516;13.460;2022-11-20T08:05:24;-0.20;99.90
32502;DHT22;18952;52.516;13.460;2022-11-20T08:07:51;-0.20;99.90
32502;DHT22;18952;52.516;13.460;2022-11-20T08:10:18;-0.20;99.90
32502;DHT22;18952;52.516;13.460;2022-11-20T08:12:49;-0.20;99.90
32502;DHT22;18952;52.516;13.460;2022-11-20T08:15:16;-0.20;99.90
32502;DHT22;18952;52.516;13.460;2022-11-20T08:17:43;-0.20;99.90
32502;DHT22;18952;52.516;13.460;2022-11-20T08:20:30;-0.10;99.90
32502;DHT22;18952;52.516;13.460;2022-11-20T08:23:02;-0.20;99.90
32502;DHT22;18952;52.516;13.460;2022-11-20T08:25:29;-0.20;99.90
32502;DHT22;18952;52.516;13.460;2022-11-20T08:28:00;-0.20;99.90
32502;DHT22;18952;52.516;13.460;2022-11-20T08:30:41;-0.20;99.90
32502;DHT22;18952;52.516;13.460;2022-11-20T08:33:08;-0.10;99.90
32502;DHT22;18952;52.516;13.460;2022-11-20T08:35:36;-0.10;99.90
32502;DHT22;18952;52.516;13.460;2022-11-20T08:38:04;0.00;99.90
32502;DHT22;18952;52.516;13.460;2022-11-20T08:40:32;-0.10;99.90
32502;DHT22;18952;52.516;13.460;2022-11-20T08:43:00;0.00;99.90
32502;DHT22;18952;52.516;13.460;2022-11-20T08:45:27;0.00;99.90
32502;DHT22;18952;52.516;13.460;2022-11-20T08:48:00;0.00;99.90
32502;DHT22;18952;52.516;13.460;2022-11-20T08:50:27;0.00;99.90
32502;DHT22;18952;52.516;13.460;2022-11-20T08:52:54;0.00;99.90
32502;DHT22;18952;52.516;13.460;2022-11-20T08:55:21;0.00;99.90
32502;DHT22;18952;52.516;13.460;2022-11-20T08:57:48;0.10;99.90
32502;DHT22;18952;52.516;13.460;2022-11-20T09:00:17;0.10;99.90
32502;DHT22;18952;52.516;13.460;2022-11-20T09:02:44;0.10;99.90
32502;DHT22;18952;52.516;13.460;2022-11-20T09:05:10;0.20;99.90
32502;DHT22;18952;52.516;13.460;2022-11-20T09:07:38;0.20;99.90
32502;DHT22;18952;52.516;13.460;2022-11-20T09:10:05;0.20;99.90
32502;DHT22;18952;52.516;13.460;2022-11-20T09:12:52;0.20;99.90
32502;DHT22;18952;52.516;13.460;2022-11-20T09:15:19;0.20;99.90
32502;DHT22;18952;52.516;13.460;2022-11-20T09:17:57;0.20;99.90
32502;DHT22;18952;52.516;13.460;2022-11-20T09:20:27;0.30;99.90
32502;DHT22;18952;52.516;13.460;2022-11-20T09:22:55;0.30;99.90
32502;DHT22;18952;52.516;13.460;2022-11-20T09:25:22;0.30;99.90
32502;DHT22;18952;52.516;13.460;2022-11-20T09:27:55;0.30;99.90
32502;DHT22;18952;52.516;13.460;2022-11-20T09:30:21;0.30;99.90
32502;DHT22;18952;52.516;13.460;2022-11-20T09:32:48;0.30;99.90
32502;DHT22;18952;52.516;13.460;2022-11-20T09:35:15;0.20;99.90
32502;DHT22;18952;52.516;13.460;2022-11-20T09:37:42;0.30;99.90
32502;DHT22;18952;52.516;13.460;2022-11-20T09:40:29;0.30;99.90
32502;DHT22;18952;52.516;13.460;2022-11-20T09:43:25;0.30;99.90
32502;DHT22;18952;52.516;13.460;2022-11-20T09:47:06;0.30;99.90
32502;DHT22;18952;52.516;13.460;2022-11-20T09:54:19;0.30;99.90
32502;DHT22;18952;52.516;13.460;2022-11-20T09:56:55;0.30;99.90
32502;DHT22;18952;52.516;13.460;2022-11-20T10:01:49;0.40;99.90
32502;DHT22;18952;52.516;13.460;2022-11-20T10:04:19;0.40;99.90
32502;DHT22;18952;52.516;13.460;2022-11-20T10:07:13;0.50;99.90
32502;DHT22;18952;52.516;13.460;2022-11-20T10:09:59;0.50;99.90
32502;DHT22;18952;52.516;13.460;2022-11-20T10:12:46;0.50;99.90
32502;DHT22;18952;52.516;13.460;2022-11-20T10:29:10;0.80;99.90
32502;DHT22;18952;52.516;13.460;2022-11-20T10:31:42;0.70;99.90
32502;DHT22;18952;52.516;13.460;2022-11-20T10:34:31;0.70;99.90
32502;DHT22;18952;52.516;13.460;2022-11-20T10:37:08;0.60;99.90
32502;DHT22;18952;52.516;13.460;2022-11-20T10:39:47;0.60;99.90
32502;DHT22;18952;52.516;13.460;2022-11-20T10:42:30;0.60;99.90
32502;DHT22;18952;52.516;13.460;2022-11-20T10:45:09;0.60;99.90
32502;DHT22;18952;52.516;13.460;2022-11-20T10:47:39;0.60;99.90
32502;DHT22;18952;52.516;13.460;2022-11-20T10:50:11;0.70;99.90
32502;DHT22;18952;52.516;13.460;2022-11-20T10:55:38;0.70;99.90
32502;DHT22;18952;52.516;13.460;2022-11-20T11:00:51;0.70;99.90
32502;DHT22;18952;52.516;13.460;2022-11-20T11:03:25;0.70;99.90
32502;DHT22;18952;52.516;13.460;2022-11-20T11:08:36;0.80;99.90
32502;DHT22;18952;52.516;13.460;2022-11-20T11:14:06;0.90;99.90
32502;DHT22;18952;52.516;13.460;2022-11-20T11:16:34;0.90;99.90
32502;DHT22;18952;52.516;13.460;2022-11-20T11:19:13;1.00;99.90
32502;DHT22;18952;52.516;13.460;2022-11-20T11:21:47;1.10;99.90
32502;DHT22;18952;52.516;13.460;2022-11-20T11:24:24;1.10;99.90
32502;DHT22;18952;52.516;13.460;2022-11-20T11:27:13;1.20;99.90
32502;DHT22;18952;52.516;13.460;2022-11-20T11:29:43;1.20;99.90
32502;DHT22;18952;52.516;13.460;2022-11-20T11:32:17;1.30;99.90
32502;DHT22;18952;52.516;13.460;2022-11-20T11:34:44;1.20;99.90
32502;DHT22;18952;52.516;13.460;2022-11-20T11:37:17;1.20;99.90
32502;DHT22;18952;52.516;13.460;2022-11-20T11:39:44;1.10;99.90
32502;DHT22;18952;52.516;13.460;2022-11-20T11:42:20;1.20;99.90
32502;DHT22;18952;52.516;13.460;2022-11-20T11:44:48;1.20;99.90
32502;DHT22;18952;52.516;13.460;2022-11-20T11:52:38;1.10;99.90
32502;DHT22;18952;52.516;13.460;2022-11-20T11:55:11;1.10;99.90
32502;DHT22;18952;52.516;13.460;2022-11-20T11:57:48;1.10;99.90
32502;DHT22;18952;52.516;13.460;2022-11-20T12:00:20;1.20;99.90
32502;DHT22;18952;52.516;13.460;2022-11-20T12:05:34;1.20;99.90
32502;DHT22;18952;52.516;13.460;2022-11-20T12:11:38;1.10;99.90
32502;DHT22;18952;52.516;13.460;2022-11-20T12:17:13;1.00;99.90
32502;DHT22;18952;52.516;13.460;2022-11-20T12:19:40;1.00;99.90
32502;DHT22;18952;52.516;13.460;2022-11-20T12:30:21;1.00;99.90
32502;DHT22;18952;52.516;13.460;2022-11-20T12:33:04;1.00;99.90
32502;DHT22;18952;52.516;13.460;2022-11-20T12:36:07;1.20;99.90
32502;DHT22;18952;52.516;13.460;2022-11-20T12:44:11;1.10;99.90
32502;DHT22;18952;52.516;13.460;2022-11-20T12:46:49;1.10;99.90
32502;DHT22;18952;52.516;13.460;2022-11-20T12:49:57;1.10;99.90
32502;DHT22;18952;52.516;13.460;2022-11-20T12:57:49;0.90;99.90
32502;DHT22;18952;52.516;13.460;2022-11-20T13:00:19;0.90;99.90
32502;DHT22;18952;52.516;13.460;2022-11-20T13:03:00;0.90;99.90
32502;DHT22;18952;52.516;13.460;2022-11-20T13:08:42;1.00;99.90
32502;DHT22;18952;52.516;13.460;2022-11-20T13:16:58;1.20;99.90
32502;DHT22;18952;52.516;13.460;2022-11-20T13:19:32;1.30;99.90
32502;DHT22;18952;52.516;13.460;2022-11-20T13:21:59;1.60;99.90
32502;DHT22;18952;52.516;13.460;2022-11-20T13:24:28;1.80;99.90
32502;DHT22;18952;52.516;13.460;2022-11-20T13:27:16;1.90;99.90
32502;DHT22;18952;52.516;13.460;2022-11-20T13:29:45;1.90;99.90
32502;DHT22;18952;52.516;13.460;2022-11-20T13:32:21;1.90;99.90
32502;DHT22;18952;52.516;13.460;2022-11-20T13:35:11;1.70;99.90
32502;DHT22;18952;52.516;13.460;2022-11-20T13:37:41;1.60;99.90
32502;DHT22;18952;52.516;13.460;2022-11-20T13:42:56;1.40;99.90
32502;DHT22;18952;52.516;13.460;2022-11-20T13:45:31;1.40;99.90
32502;DHT22;18952;52.516;13.460;2022-11-20T13:48:21;1.40;99.90
32502;DHT22;18952;52.516;13.460;2022-11-20T13:51:07;1.40;99.90
32502;DHT22;18952;52.516;13.460;2022-11-20T13:59:28;1.30;99.90
32502;DHT22;18952;52.516;13.460;2022-11-20T14:02:00;1.20;99.90
32502;DHT22;18952;52.516;13.460;2022-11-20T14:04:38;1.10;99.90
32502;DHT22;18952;52.516;13.460;2022-11-20T14:07:09;1.10;99.90
32502;DHT22;18952;52.516;13.460;2022-11-20T14:09:37;1.00;99.90
32502;DHT22;18952;52.516;13.460;2022-11-20T14:12:13;1.00;99.90
32502;DHT22;18952;52.516;13.460;2022-11-20T14:14:48;0.90;99.90
32502;DHT22;18952;52.516;13.460;2022-11-20T14:19:53;0.90;99.90
32502;DHT22;18952;52.516;13.460;2022-11-20T14:22:26;0.90;99.90
32502;DHT22;18952;52.516;13.460;2022-11-20T14:27:52;0.90;99.90
32502;DHT22;18952;52.516;13.460;2022-11-20T14:30:21;0.80;99.90
32502;DHT22;18952;52.516;13.460;2022-11-20T14:32:49;0.80;99.90
32502;DHT22;18952;52.516;13.460;2022-11-20T14:35:33;0.80;99.90
32502;DHT22;18952;52.516;13.460;2022-11-20T14:38:01;0.80;99.90
32502;DHT22;18952;52.516;13.460;2022-11-20T14:40:31;0.80;99.90
32502;DHT22;18952;52.516;13.460;2022-11-20T14:43:06;0.80;99.90
32502;DHT22;18952;52.516;13.460;2022-11-20T14:45:54;0.80;99.90
32502;DHT22;18952;52.516;13.460;2022-11-20T14:48:37;0.80;99.90
32502;DHT22;18952;52.516;13.460;2022-11-20T14:51:04;0.70;99.90
32502;DHT22;18952;52.516;13.460;2022-11-20T14:53:36;0.60;99.90
32502;DHT22;18952;52.516;13.460;2022-11-20T14:56:05;0.60;99.90
32502;DHT22;18952;52.516;13.460;2022-11-20T14:58:43;0.60;99.90
32502;DHT22;18952;52.516;13.460;2022-11-20T15:01:26;0.60;99.90
32502;DHT22;18952;52.516;13.460;2022-11-20T15:06:36;0.50;99.90
32502;DHT22;18952;52.516;13.460;2022-11-20T15:09:13;0.60;99.90
32502;DHT22;18952;52.516;13.460;2022-11-20T15:11:54;0.60;99.90
32502;DHT22;18952;52.516;13.460;2022-11-20T15:14:22;0.60;99.90
32502;DHT22;18952;52.516;13.460;2022-11-20T15:16:53;0.50;99.90
32502;DHT22;18952;52.516;13.460;2022-11-20T15:19:24;0.60;99.90
32502;DHT22;18952;52.516;13.460;2022-11-20T15:21:51;0.60;99.90
32502;DHT22;18952;52.516;13.460;2022-11-20T15:24:23;0.60;99.90
32502;DHT22;18952;52.516;13.460;2022-11-20T15:26:50;0.60;99.90
32502;DHT22;18952;52.516;13.460;2022-11-20T15:29:22;0.70;99.90
32502;DHT22;18952;52.516;13.460;2022-11-20T15:31:52;0.70;99.90
32502;DHT22;18952;52.516;13.460;2022-11-20T15:34:20;0.60;99.90
32502;DHT22;18952;52.516;13.460;2022-11-20T15:36:47;0.60;99.90
32502;DHT22;18952;52.516;13.460;2022-11-20T15:39:17;0.60;99.90
32502;DHT22;18952;52.516;13.460;2022-11-20T15:41:46;0.60;99.90
32502;DHT22;18952;52.516;13.460;2022-11-20T15:44:13;0.70;99.90
32502;DHT22;18952;52.516;13.460;2022-11-20T15:46:46;0.70;99.90
32502;DHT22;18952;52.516;13.460;2022-11-20T15:49:15;0.70;99.90
32502;DHT22;18952;52.516;13.460;2022-11-20T15:51:48;0.80;99.90
32502;DHT22;18952;52.516;13.460;2022-11-20T15:54:18;0.70;99.90
32502;DHT22;18952;52.516;13.460;2022-11-20T15:56:49;0.70;99.90
32502;DHT22;18952;52.516;13.460;2022-11-20T15:59:16;0.80;99.90
32502;DHT22;18952;52.516;13.460;2022-11-20T16:01:47;0.70;99.90
32502;DHT22;18952;52.516;13.460;2022-11-20T16:04:22;0.70;99.90
32502;DHT22;18952;52.516;13.460;2022-11-20T16:07:02;0.70;99.90
32502;DHT22;18952;52.516;13.460;2022-11-20T16:09:30;0.70;99.90
32502;DHT22;18952;52.516;13.460;2022-11-20T16:12:00;0.60;99.90
32502;DHT22;18952;52.516;13.460;2022-11-20T16:14:27;0.60;99.90
32502;DHT22;18952;52.516;13.460;2022-11-20T16:16:59;0.50;99.90
32502;DHT22;18952;52.516;13.460;2022-11-20T16:19:26;0.50;99.90
32502;DHT22;18952;52.516;13.460;2022-11-20T16:21:52;0.40;99.90
32502;DHT22;18952;52.516;13.460;2022-11-20T16:24:30;0.30;99.90
32502;DHT22;18952;52.516;13.460;2022-11-20T16:26:59;0.20;99.90
32502;DHT22;18952;52.516;13.460;2022-11-20T16:29:26;0.20;99.90
32502;DHT22;18952;52.516;13.460;2022-11-20T16:31:56;0.20;99.90
32502;DHT22;18952;52.516;13.460;2022-11-20T16:34:23;0.10;99.90
32502;DHT22;18952;52.516;13.460;2022-11-20T16:36:50;0.10;99.90
32502;DHT22;18952;52.516;13.460;2022-11-20T16:39:17;0.10;99.90
32502;DHT22;18952;52.516;13.460;2022-11-20T16:41:49;0.10;99.90
32502;DHT22;18952;52.516;13.460;2022-11-20T16:44:16;0.00;99.90
32502;DHT22;18952;52.516;13.460;2022-11-20T16:46:42;0.00;99.90
32502;DHT22;18952;52.516;13.460;2022-11-20T16:49:13;0.00;99.90
32502;DHT22;18952;52.516;13.460;2022-11-20T16:51:40;-0.10;99.90
32502;DHT22;18952;52.516;13.460;2022-11-20T16:54:08;-0.10;99.90
32502;DHT22;18952;52.516;13.460;2022-11-20T16:56:35;0.00;99.90
32502;DHT22;18952;52.516;13.460;2022-11-20T16:59:02;-0.10;99.90
32502;DHT22;18952;52.516;13.460;2022-11-20T17:01:29;-0.10;99.90
32502;DHT22;18952;52.516;13.460;2022-11-20T17:03:58;-0.10;99.90
32502;DHT22;18952;52.516;13.460;2022-11-20T17:06:28;-0.10;99.90
32502;DHT22;18952;52.516;13.460;2022-11-20T17:09:03;0.00;99.90
32502;DHT22;18952;52.516;13.460;2022-11-20T17:11:30;0.00;99.90
32502;DHT22;18952;52.516;13.460;2022-11-20T17:13:58;0.00;99.90
32502;DHT22;18952;52.516;13.460;2022-11-20T17:16:27;0.00;99.90
32502;DHT22;18952;52.516;13.460;2022-11-20T17:18:56;0.10;99.90
32502;DHT22;18952;52.516;13.460;2022-11-20T17:21:28;0.10;99.90
32502;DHT22;18952;52.516;13.460;2022-11-20T17:23:55;0.10;99.90
32502;DHT22;18952;52.516;13.460;2022-11-20T17:26:23;0.10;99.90